Time;durP1;ratioP1;P1;durP2;ratioP2;P2;SDS_P1;SDS_P2;PMS_P1;PMS_P2;Temp;Humidity;BMP_temperature;BMP_pressure;BME280_temperature;BME280_humidity;BME280_pressure;Samples;Min_cycle;Max_cycle;Signal;HPM_P1;HPM_P2
2021/12/23 00:00:32;;;;;;;18.65;13.68;;;2.00;99.90;;;;;;4974764;28;20556;-79
2021/12/23 00:02:57;;;;;;;15.18;12.65;;;2.00;99.90;;;;;;4992293;28;20022;-76
2021/12/23 00:05:23;;;;;;;15.65;12.50;;;2.00;99.90;;;;;;4973933;28;20041;-79
2021/12/23 00:07:48;;;;;;;14.73;12.00;;;2.10;99.90;;;;;;4996156;28;20026;-76
2021/12/23 00:10:14;;;;;;;15.30;12.95;;;2.00;99.90;;;;;;4981718;28;20061;-74
2021/12/23 00:12:42;;;;;;;16.92;13.30;;;2.10;99.90;;;;;;4976740;28;20053;-75
2021/12/23 00:16:01;;;;;;;17.05;13.48;;;2.00;99.90;;;;;;4976466;28;20037;-81
2021/12/23 00:25:50;;;;;;;15.07;12.57;;;2.00;99.90;;;;;;5013900;28;20045;-74
2021/12/23 00:28:16;;;;;;;14.75;12.45;;;2.10;99.90;;;;;;4995654;28;20026;-79
2021/12/23 00:30:42;;;;;;;14.50;12.27;;;2.10;99.90;;;;;;4995248;28;20485;-79
2021/12/23 00:33:08;;;;;;;16.52;13.05;;;2.10;99.90;;;;;;4995494;28;20022;-77
2021/12/23 00:35:33;;;;;;;16.55;13.48;;;2.10;99.90;;;;;;4982530;28;20130;-73
2021/12/23 00:38:04;;;;;;;14.70;12.13;;;2.10;99.90;;;;;;4975658;28;20018;-75
2021/12/23 00:40:29;;;;;;;17.48;13.50;;;2.10;99.90;;;;;;4993218;28;20030;-80
2021/12/23 00:42:56;;;;;;;16.55;13.35;;;2.20;99.90;;;;;;4976000;28;20023;-74
2021/12/23 00:45:23;;;;;;;15.75;12.63;;;2.20;99.90;;;;;;4991077;28;20030;-79
2021/12/23 00:47:48;;;;;;;17.27;12.43;;;2.20;99.90;;;;;;4993343;28;20080;-77
2021/12/23 00:50:15;;;;;;;18.65;14.60;;;2.20;99.90;;;;;;4974398;28;20026;-75
2021/12/23 00:52:41;;;;;;;17.40;14.00;;;2.20;99.90;;;;;;4973208;28;20029;-73
2021/12/23 00:55:10;;;;;;;19.23;14.85;;;2.20;99.90;;;;;;4975110;28;20034;-81
2021/12/23 00:57:39;;;;;;;15.68;13.13;;;2.20;99.90;;;;;;4993051;28;20068;-76
2021/12/23 01:00:10;;;;;;;20.15;17.88;;;2.20;99.90;;;;;;4975335;28;20021;-83
2021/12/23 01:02:37;;;;;;;19.10;16.77;;;2.20;99.90;;;;;;4975368;28;20447;-76
2021/12/23 01:05:03;;;;;;;17.85;14.90;;;2.20;99.90;;;;;;4971479;28;20042;-83
2021/12/23 01:07:29;;;;;;;17.33;14.70;;;2.20;99.90;;;;;;4969789;28;20030;-77
2021/12/23 01:09:55;;;;;;;15.98;13.27;;;2.20;99.90;;;;;;4975992;28;20455;-78
2021/12/23 01:12:27;;;;;;;14.38;11.82;;;2.20;99.90;;;;;;4973958;28;20080;-74
2021/12/23 01:14:57;;;;;;;18.33;14.57;;;2.20;99.90;;;;;;4975476;28;20076;-78
2021/12/23 01:19:54;;;;;;;16.23;12.65;;;2.20;99.90;;;;;;4992414;28;20035;-80
2021/12/23 01:22:21;;;;;;;16.60;13.45;;;2.20;99.90;;;;;;4975338;28;20493;-82
2021/12/23 01:24:47;;;;;;;15.73;13.05;;;2.20;99.90;;;;;;4972382;28;20038;-74
2021/12/23 01:27:14;;;;;;;15.90;12.55;;;2.20;99.90;;;;;;4973657;28;20030;-78
2021/12/23 01:29:41;;;;;;;17.85;14.00;;;2.20;99.90;;;;;;4992327;28;20054;-82
2021/12/23 01:32:07;;;;;;;18.25;13.65;;;2.20;99.90;;;;;;4991251;28;20137;-77
2021/12/23 01:34:34;;;;;;;17.35;13.00;;;2.20;99.90;;;;;;4991980;28;20106;-77
2021/12/23 01:37:01;;;;;;;16.15;12.77;;;2.30;99.90;;;;;;4974177;28;20027;-74
2021/12/23 01:39:27;;;;;;;17.48;14.02;;;2.20;99.90;;;;;;4991277;28;20057;-78
2021/12/23 01:41:52;;;;;;;18.20;14.10;;;2.30;99.90;;;;;;4974571;28;20037;-73
2021/12/23 01:44:18;;;;;;;13.85;11.80;;;2.30;99.90;;;;;;4973559;28;20023;-74
2021/12/23 01:46:44;;;;;;;14.80;12.70;;;2.30;99.90;;;;;;4972605;28;20590;-75
2021/12/23 01:49:09;;;;;;;15.73;11.93;;;2.20;99.90;;;;;;4973719;28;20034;-76
2021/12/23 01:51:35;;;;;;;16.30;12.65;;;2.20;99.90;;;;;;4974760;28;20019;-76
2021/12/23 01:54:00;;;;;;;16.33;13.05;;;2.20;99.90;;;;;;4974557;28;20121;-76
2021/12/23 01:56:27;;;;;;;17.65;13.80;;;2.20;99.90;;;;;;4991389;28;20101;-82
2021/12/23 01:58:53;;;;;;;16.05;13.20;;;2.20;99.90;;;;;;4991180;28;20104;-73
2021/12/23 02:01:19;;;;;;;18.42;14.27;;;2.20;99.90;;;;;;4974375;28;20018;-76
2021/12/23 02:03:45;;;;;;;15.60;12.77;;;2.20;99.90;;;;;;4972234;28;20044;-79
2021/12/23 02:06:11;;;;;;;17.45;13.15;;;2.20;99.90;;;;;;4990807;28;20026;-75
2021/12/23 02:08:38;;;;;;;15.30;12.95;;;2.20;99.90;;;;;;4988034;28;20546;-77
2021/12/23 02:11:07;;;;;;;19.50;14.95;;;2.20;99.90;;;;;;4990667;28;20110;-77
2021/12/23 02:13:33;;;;;;;19.10;14.07;;;2.20;99.90;;;;;;4991283;28;20034;-75
2021/12/23 02:15:59;;;;;;;17.52;14.48;;;2.20;99.90;;;;;;4991084;28;20029;-73
2021/12/23 02:18:26;;;;;;;15.55;12.77;;;2.20;99.90;;;;;;4970023;28;20107;-76
2021/12/23 02:20:53;;;;;;;19.38;14.43;;;2.20;99.90;;;;;;4970915;28;20387;-76
2021/12/23 02:23:18;;;;;;;17.80;14.10;;;2.10;99.90;;;;;;4953955;28;20066;-79
2021/12/23 02:25:44;;;;;;;18.55;15.35;;;2.10;99.90;;;;;;4986278;28;20060;-78
2021/12/23 02:28:14;;;;;;;17.60;14.43;;;2.10;99.90;;;;;;4973186;28;20035;-75
2021/12/23 02:30:40;;;;;;;16.15;13.73;;;2.00;99.90;;;;;;4990776;28;20042;-78
2021/12/23 02:33:06;;;;;;;18.80;13.95;;;2.00;99.90;;;;;;4974028;28;20086;-78
2021/12/23 02:35:32;;;;;;;20.50;15.25;;;1.90;99.90;;;;;;4974063;28;20030;-78
2021/12/23 02:37:58;;;;;;;17.38;14.48;;;1.90;99.90;;;;;;4989603;28;20022;-83
2021/12/23 02:40:30;;;;;;;17.75;13.35;;;1.80;99.90;;;;;;4973943;28;20049;-75
2021/12/23 02:43:05;;;;;;;16.52;13.07;;;1.80;99.90;;;;;;4971022;28;20437;-76
2021/12/23 02:45:31;;;;;;;17.77;13.73;;;1.80;99.90;;;;;;4972862;28;20211;-80
2021/12/23 02:47:57;;;;;;;17.02;14.18;;;1.80;99.90;;;;;;4989711;28;20379;-76
2021/12/23 02:50:22;;;;;;;16.00;13.25;;;1.80;99.90;;;;;;4989423;28;20065;-81
2021/12/23 02:52:48;;;;;;;15.48;13.10;;;1.70;99.90;;;;;;4990635;28;20054;-78
2021/12/23 02:55:18;;;;;;;17.25;14.50;;;1.70;99.90;;;;;;4959170;28;20027;-76
2021/12/23 02:57:43;;;;;;;16.92;13.80;;;1.70;99.90;;;;;;4972640;28;20042;-74
2021/12/23 03:00:10;;;;;;;18.10;14.13;;;1.70;99.90;;;;;;4988649;28;20727;-75
2021/12/23 03:02:39;;;;;;;17.33;14.60;;;1.60;99.90;;;;;;4973730;28;20026;-79
2021/12/23 03:05:07;;;;;;;15.90;13.50;;;1.60;99.90;;;;;;4988971;28;20049;-77
2021/12/23 03:07:33;;;;;;;18.60;13.93;;;1.60;99.90;;;;;;4990646;28;20109;-78
2021/12/23 03:09:58;;;;;;;15.57;13.15;;;1.60;99.90;;;;;;4989268;28;20407;-79
2021/12/23 03:12:24;;;;;;;17.08;13.98;;;1.70;99.90;;;;;;4990539;28;20459;-75
2021/12/23 03:14:50;;;;;;;18.17;13.77;;;1.70;99.90;;;;;;4972348;28;20081;-75
2021/12/23 03:17:16;;;;;;;16.30;13.70;;;1.80;99.90;;;;;;4973709;28;20041;-74
2021/12/23 03:19:41;;;;;;;19.08;15.15;;;1.70;99.90;;;;;;4990016;28;20035;-83
2021/12/23 03:22:07;;;;;;;19.42;15.70;;;1.80;99.90;;;;;;4973758;28;20357;-75
2021/12/23 03:24:33;;;;;;;18.00;14.82;;;1.80;99.90;;;;;;4971901;28;20553;-77
2021/12/23 03:26:58;;;;;;;18.40;14.68;;;1.80;99.90;;;;;;4989526;28;20552;-78
2021/12/23 03:29:25;;;;;;;17.67;13.63;;;1.70;99.90;;;;;;4990728;28;20027;-82
2021/12/23 03:31:51;;;;;;;18.25;14.00;;;1.70;99.90;;;;;;4990652;28;20491;-75
2021/12/23 03:34:16;;;;;;;19.55;14.75;;;1.70;99.90;;;;;;4988586;28;20054;-82
2021/12/23 03:36:42;;;;;;;17.63;13.70;;;1.70;99.90;;;;;;4977281;28;20026;-73
2021/12/23 03:39:08;;;;;;;17.45;13.77;;;1.70;99.90;;;;;;4958990;28;20125;-81
2021/12/23 03:41:33;;;;;;;19.40;14.10;;;1.70;99.90;;;;;;4984795;28;20080;-76
2021/12/23 03:43:59;;;;;;;17.95;14.65;;;1.70;99.90;;;;;;4993351;28;20029;-82
2021/12/23 03:46:24;;;;;;;15.70;13.20;;;1.60;99.90;;;;;;5010310;28;20099;-75
2021/12/23 03:48:50;;;;;;;18.92;15.23;;;1.60;99.90;;;;;;4976717;28;20379;-80
2021/12/23 03:51:16;;;;;;;17.95;14.40;;;1.50;99.90;;;;;;4974203;28;20121;-80
2021/12/23 03:53:41;;;;;;;18.38;14.60;;;1.40;99.90;;;;;;4973833;28;20026;-74
2021/12/23 03:56:07;;;;;;;19.45;15.15;;;1.40;99.90;;;;;;4976302;28;20030;-78
2021/12/23 03:58:32;;;;;;;19.48;15.43;;;1.40;99.90;;;;;;4976570;28;20033;-83
2021/12/23 04:00:59;;;;;;;18.98;14.70;;;1.30;99.90;;;;;;4976263;28;20542;-73
2021/12/23 04:03:25;;;;;;;20.63;14.60;;;1.40;99.90;;;;;;4973503;28;20379;-78
2021/12/23 04:05:51;;;;;;;18.20;14.93;;;1.40;99.90;;;;;;4976894;28;20041;-77
2021/12/23 04:08:16;;;;;;;18.63;14.60;;;1.40;99.90;;;;;;4993566;28;20026;-78
2021/12/23 04:10:42;;;;;;;19.17;15.23;;;1.50;99.90;;;;;;4976111;28;20026;-76
2021/12/23 04:13:08;;;;;;;16.90;13.55;;;1.50;99.90;;;;;;4988597;28;20026;-82
2021/12/23 04:15:33;;;;;;;22.30;16.80;;;1.60;99.90;;;;;;4990018;28;20076;-79
2021/12/23 04:17:59;;;;;;;18.60;15.43;;;1.60;99.90;;;;;;4994105;28;20026;-74
2021/12/23 04:20:32;;;;;;;19.50;14.82;;;1.60;99.90;;;;;;4976066;28;20041;-79
2021/12/23 04:22:58;;;;;;;19.05;14.52;;;1.70;99.90;;;;;;4974692;28;20049;-74
2021/12/23 04:25:26;;;;;;;22.98;16.85;;;1.70;99.90;;;;;;4971908;28;20480;-74
2021/12/23 04:27:57;;;;;;;17.95;14.00;;;1.70;99.90;;;;;;4967952;28;20474;-81
2021/12/23 04:30:24;;;;;;;17.30;13.45;;;1.70;99.90;;;;;;4975353;28;20045;-79
2021/12/23 04:32:50;;;;;;;18.65;14.38;;;1.70;99.90;;;;;;4977028;28;20029;-79
2021/12/23 04:35:15;;;;;;;22.88;16.38;;;1.80;99.90;;;;;;4993543;28;20097;-74
2021/12/23 04:37:41;;;;;;;19.23;16.17;;;1.80;99.90;;;;;;4974711;28;20057;-77
2021/12/23 04:40:09;;;;;;;18.33;14.75;;;1.80;99.90;;;;;;4976146;28;20110;-77
2021/12/23 04:42:36;;;;;;;18.63;15.18;;;1.80;99.90;;;;;;4992514;28;20403;-74
2021/12/23 04:45:03;;;;;;;18.40;15.25;;;1.80;99.90;;;;;;4991586;28;20068;-74
2021/12/23 04:47:29;;;;;;;19.20;14.60;;;1.80;99.90;;;;;;4974154;28;20050;-76
2021/12/23 04:49:55;;;;;;;18.65;14.95;;;1.90;99.90;;;;;;4993659;28;20085;-82
2021/12/23 04:52:20;;;;;;;19.38;15.23;;;1.90;99.90;;;;;;4993020;28;20105;-79
2021/12/23 04:54:46;;;;;;;18.60;14.90;;;1.80;99.90;;;;;;4975896;28;20029;-76
2021/12/23 04:57:11;;;;;;;19.48;14.93;;;1.80;99.90;;;;;;4974748;28;20030;-74
2021/12/23 04:59:37;;;;;;;19.00;14.73;;;1.90;99.90;;;;;;4974813;28;20022;-74
2021/12/23 05:02:03;;;;;;;19.15;14.38;;;1.90;99.90;;;;;;4993137;28;20038;-73
2021/12/23 05:04:28;;;;;;;17.38;13.25;;;1.90;99.90;;;;;;4974513;28;20038;-77
2021/12/23 05:06:54;;;;;;;20.80;14.52;;;1.90;99.90;;;;;;4974690;28;20471;-76
2021/12/23 05:09:20;;;;;;;15.20;12.73;;;1.90;99.90;;;;;;4992634;28;20164;-83
2021/12/23 05:11:46;;;;;;;17.83;14.00;;;1.90;99.90;;;;;;4972982;28;20030;-75
2021/12/23 05:14:12;;;;;;;21.23;15.95;;;1.90;99.90;;;;;;4975472;28;20023;-80
2021/12/23 05:16:38;;;;;;;20.17;15.23;;;1.90;99.90;;;;;;4990595;28;20395;-73
2021/12/23 05:19:04;;;;;;;20.05;15.20;;;1.90;99.90;;;;;;4990300;28;20034;-77
2021/12/23 05:21:30;;;;;;;20.00;15.98;;;1.90;99.90;;;;;;4981350;28;20507;-84
2021/12/23 05:23:56;;;;;;;21.85;16.23;;;1.90;99.90;;;;;;4955939;28;20055;-75
2021/12/23 05:26:22;;;;;;;20.75;15.35;;;1.90;99.90;;;;;;4955472;28;20035;-75
2021/12/23 05:28:48;;;;;;;19.60;15.73;;;1.90;99.90;;;;;;4955741;28;20110;-76
2021/12/23 05:31:14;;;;;;;22.80;16.80;;;1.90;99.90;;;;;;4972252;28;20133;-78
2021/12/23 05:33:39;;;;;;;21.65;17.85;;;1.90;99.90;;;;;;4955472;28;20109;-82
2021/12/23 05:36:05;;;;;;;28.65;20.98;;;1.90;99.90;;;;;;4955969;28;20118;-82
2021/12/23 05:38:31;;;;;;;21.67;16.70;;;1.80;99.90;;;;;;4955857;28;20501;-85
2021/12/23 05:40:56;;;;;;;24.08;17.17;;;1.90;99.90;;;;;;4961562;28;20077;-78
2021/12/23 05:43:22;;;;;;;22.67;17.35;;;1.90;99.90;;;;;;4989900;28;20049;-75
2021/12/23 05:45:48;;;;;;;23.88;17.48;;;1.90;99.90;;;;;;4978116;28;20073;-77
2021/12/23 05:48:14;;;;;;;20.45;16.48;;;1.90;99.90;;;;;;4992323;28;20039;-78
2021/12/23 05:50:40;;;;;;;21.70;16.40;;;1.90;99.90;;;;;;4993866;28;20456;-79
2021/12/23 05:53:05;;;;;;;20.60;16.13;;;1.90;99.90;;;;;;4994244;28;20061;-76
2021/12/23 05:55:31;;;;;;;22.45;16.95;;;1.90;99.90;;;;;;5011003;28;20022;-77
2021/12/23 05:57:57;;;;;;;23.70;18.40;;;1.90;99.90;;;;;;5010611;28;20394;-73
2021/12/23 06:00:28;;;;;;;22.52;17.27;;;1.90;99.90;;;;;;5010778;28;20018;-78
2021/12/23 06:02:55;;;;;;;23.70;17.40;;;1.90;99.90;;;;;;4991347;28;20089;-74
2021/12/23 06:05:20;;;;;;;24.50;17.52;;;1.90;99.90;;;;;;4974247;28;20030;-75
2021/12/23 06:07:46;;;;;;;24.58;18.58;;;1.90;99.90;;;;;;4991311;28;20025;-78
2021/12/23 06:10:14;;;;;;;24.50;19.05;;;1.90;99.90;;;;;;4991687;28;20030;-76
2021/12/23 06:12:40;;;;;;;27.13;19.40;;;1.90;99.90;;;;;;4991759;28;20092;-80
2021/12/23 06:15:07;;;;;;;25.58;19.77;;;1.90;99.90;;;;;;4990475;28;20070;-79
2021/12/23 06:17:33;;;;;;;26.60;18.23;;;1.80;99.90;;;;;;4979076;28;20022;-76
2021/12/23 06:19:59;;;;;;;25.63;19.23;;;1.80;99.90;;;;;;5011175;28;20097;-80
2021/12/23 06:22:25;;;;;;;24.52;18.73;;;1.80;99.90;;;;;;4997944;28;20128;-74
2021/12/23 06:24:51;;;;;;;24.65;19.08;;;1.80;99.90;;;;;;4969063;28;20042;-76
2021/12/23 06:27:18;;;;;;;27.00;18.95;;;1.70;99.90;;;;;;4954798;28;20026;-79
2021/12/23 06:29:44;;;;;;;28.30;19.80;;;1.70;99.90;;;;;;4984239;28;20099;-72
2021/12/23 06:32:10;;;;;;;24.33;18.35;;;1.80;99.90;;;;;;5008492;28;20054;-79
2021/12/23 06:34:36;;;;;;;23.67;18.23;;;1.80;99.90;;;;;;5006463;28;20101;-74
2021/12/23 06:37:04;;;;;;;28.17;19.77;;;1.80;99.90;;;;;;4987870;28;20475;-79
2021/12/23 06:39:33;;;;;;;27.05;19.00;;;1.80;99.90;;;;;;4972409;28;20027;-77
2021/12/23 06:41:59;;;;;;;30.27;21.75;;;1.70;99.90;;;;;;4972969;28;20023;-78
2021/12/23 06:44:25;;;;;;;30.02;20.73;;;1.80;99.90;;;;;;4973119;28;20041;-74
2021/12/23 06:46:51;;;;;;;26.10;20.75;;;1.80;99.90;;;;;;4991426;28;20035;-80
2021/12/23 06:49:17;;;;;;;27.65;20.40;;;1.70;99.90;;;;;;4973685;28;20027;-76
2021/12/23 06:51:42;;;;;;;30.48;21.20;;;1.80;99.90;;;;;;4971538;28;20019;-74
2021/12/23 06:54:09;;;;;;;32.70;21.30;;;1.80;99.90;;;;;;4990094;28;20022;-77
2021/12/23 06:56:35;;;;;;;28.88;20.92;;;1.70;99.90;;;;;;4971372;28;20113;-79
2021/12/23 06:59:00;;;;;;;27.77;20.15;;;1.70;99.90;;;;;;4968562;28;20106;-81
2021/12/23 07:01:26;;;;;;;30.88;21.45;;;1.70;99.90;;;;;;4954109;28;20575;-80
2021/12/23 07:04:14;;;;;;;29.27;20.95;;;1.80;99.90;;;;;;4972131;28;20041;-84
2021/12/23 07:06:46;;;;;;;27.02;19.55;;;1.70;99.90;;;;;;4964610;28;20035;-79
2021/12/23 07:09:13;;;;;;;27.02;20.27;;;1.80;99.90;;;;;;4973663;28;20026;-78
2021/12/23 07:11:39;;;;;;;27.95;20.25;;;1.80;99.90;;;;;;4974324;28;20026;-80
2021/12/23 07:14:04;;;;;;;25.30;19.77;;;1.90;99.90;;;;;;4976145;28;20027;-81
2021/12/23 07:16:30;;;;;;;29.42;19.38;;;1.90;99.90;;;;;;4994225;28;20018;-84
2021/12/23 07:18:55;;;;;;;27.33;20.13;;;1.90;99.90;;;;;;4985411;28;20083;-75
2021/12/23 07:21:21;;;;;;;30.45;21.33;;;2.00;99.90;;;;;;4974788;28;20344;-77
2021/12/23 07:23:47;;;;;;;29.17;20.85;;;2.00;99.90;;;;;;4975391;28;20022;-76
2021/12/23 07:26:12;;;;;;;26.50;18.88;;;2.00;99.90;;;;;;4957854;28;20062;-74
2021/12/23 07:28:38;;;;;;;29.50;20.75;;;2.00;99.90;;;;;;4957799;28;20464;-76
2021/12/23 07:31:03;;;;;;;32.10;21.60;;;2.00;99.90;;;;;;4967558;28;20046;-79
2021/12/23 07:33:29;;;;;;;27.90;19.45;;;2.00;99.90;;;;;;4977075;28;20033;-78
2021/12/23 07:35:54;;;;;;;27.33;19.80;;;2.00;99.90;;;;;;4995454;28;20026;-80
2021/12/23 07:38:20;;;;;;;24.10;18.17;;;2.00;99.90;;;;;;4972866;28;20038;-73
2021/12/23 07:40:46;;;;;;;31.98;21.02;;;2.10;99.90;;;;;;4975112;28;20054;-74
2021/12/23 07:45:56;;;;;;;29.42;21.48;;;2.10;99.90;;;;;;4993806;28;20103;-74
2021/12/23 07:48:21;;;;;;;31.75;21.38;;;2.10;99.90;;;;;;4994234;28;20477;-78
2021/12/23 07:50:47;;;;;;;28.63;20.17;;;2.10;99.90;;;;;;4975757;28;20431;-80
2021/12/23 07:53:13;;;;;;;30.58;21.25;;;2.10;99.90;;;;;;4994587;28;20030;-81
2021/12/23 07:55:42;;;;;;;28.30;20.23;;;2.20;99.90;;;;;;4994839;28;20027;-88
2021/12/23 07:58:08;;;;;;;30.35;22.92;;;2.20;99.90;;;;;;4993148;28;20030;-84
2021/12/23 08:00:34;;;;;;;29.42;20.52;;;2.20;99.90;;;;;;4996942;28;20022;-77
2021/12/23 08:03:00;;;;;;;30.88;21.23;;;2.20;99.90;;;;;;4973005;28;20030;-75
2021/12/23 08:05:26;;;;;;;28.65;21.75;;;2.20;99.90;;;;;;4976330;28;20041;-75
2021/12/23 08:07:54;;;;;;;26.15;19.15;;;2.20;99.90;;;;;;4983268;28;20029;-76
2021/12/23 08:10:20;;;;;;;29.50;19.52;;;2.30;99.90;;;;;;4996157;28;20022;-76
2021/12/23 08:12:45;;;;;;;29.65;21.15;;;2.30;99.90;;;;;;5005122;28;20026;-79
2021/12/23 08:15:11;;;;;;;30.65;20.83;;;2.20;99.90;;;;;;4975887;28;20054;-84
2021/12/23 08:17:37;;;;;;;26.65;18.48;;;2.20;99.90;;;;;;4975353;28;20475;-76
2021/12/23 08:20:04;;;;;;;27.70;18.70;;;2.20;99.90;;;;;;4973047;28;20390;-76
2021/12/23 08:22:29;;;;;;;26.83;18.92;;;2.30;99.90;;;;;;4989777;28;20045;-80
2021/12/23 08:25:00;;;;;;;26.73;19.70;;;2.30;99.90;;;;;;4976476;28;20121;-84
2021/12/23 08:27:28;;;;;;;27.33;19.77;;;2.40;99.90;;;;;;4976334;28;20054;-78
2021/12/23 08:29:54;;;;;;;28.80;20.40;;;2.40;99.90;;;;;;4975889;28;20034;-78
2021/12/23 08:32:21;;;;;;;28.42;19.95;;;2.40;99.90;;;;;;4975229;28;20066;-79
2021/12/23 08:34:47;;;;;;;27.77;19.45;;;2.50;99.90;;;;;;4975985;28;20023;-78
2021/12/23 08:37:13;;;;;;;28.10;20.02;;;2.50;99.90;;;;;;4959205;28;20447;-77
2021/12/23 08:39:40;;;;;;;28.02;20.30;;;2.50;99.90;;;;;;4975385;28;20054;-73
2021/12/23 08:42:07;;;;;;;25.38;18.92;;;2.40;99.90;;;;;;4958186;28;20049;-77
2021/12/23 08:44:33;;;;;;;26.25;19.05;;;2.40;99.90;;;;;;4974802;28;20450;-80
2021/12/23 08:47:03;;;;;;;26.00;18.50;;;2.50;99.90;;;;;;4992858;28;20018;-81
2021/12/23 08:49:34;;;;;;;24.83;18.83;;;2.50;99.90;;;;;;4974533;28;20038;-83
2021/12/23 08:52:17;;;;;;;26.90;18.42;;;2.50;99.90;;;;;;4973729;28;20049;-83
2021/12/23 08:55:45;;;;;;;26.92;19.02;;;2.60;99.90;;;;;;4922864;29;20886;-83
2021/12/23 08:58:37;;;;;;;27.42;20.63;;;2.60;99.90;;;;;;4930970;29;20063;-79
2021/12/23 09:01:53;;;;;;;26.50;20.33;;;2.60;99.90;;;;;;4923660;29;20027;-80
2021/12/23 09:04:22;;;;;;;25.13;17.90;;;2.60;99.90;;;;;;4944119;29;20063;-83
2021/12/23 09:06:52;;;;;;;25.13;18.48;;;2.60;99.90;;;;;;4934597;29;20512;-78
2021/12/23 09:09:38;;;;;;;32.05;22.02;;;2.70;99.90;;;;;;4916136;29;20040;-80
2021/12/23 09:12:07;;;;;;;25.85;19.20;;;2.70;99.90;;;;;;4909904;29;20872;-77
2021/12/23 09:15:12;;;;;;;25.98;19.55;;;2.70;99.90;;;;;;4916462;29;20036;-85
2021/12/23 09:17:41;;;;;;;24.42;17.58;;;2.70;99.90;;;;;;4934212;29;20280;-74
2021/12/23 09:20:12;;;;;;;30.38;18.42;;;2.80;99.90;;;;;;4948349;29;20111;-75
2021/12/23 09:22:46;;;;;;;25.08;17.70;;;2.80;99.90;;;;;;4950171;28;20640;-78
2021/12/23 09:25:34;;;;;;;26.60;19.98;;;2.90;99.90;;;;;;4941049;28;20043;-76
2021/12/23 09:28:34;;;;;;;25.50;18.83;;;2.90;99.90;;;;;;4955144;28;20030;-78
2021/12/23 09:34:10;;;;;;;26.63;19.35;;;3.00;99.90;;;;;;4972625;28;20547;-82
2021/12/23 09:36:51;;;;;;;29.88;20.58;;;3.00;99.90;;;;;;4972322;28;20073;-82
2021/12/23 09:39:16;;;;;;;27.90;20.42;;;3.00;99.90;;;;;;4950116;28;20100;-82
2021/12/23 09:41:44;;;;;;;29.85;22.13;;;3.00;99.90;;;;;;4974358;28;20027;-82
2021/12/23 09:44:11;;;;;;;27.92;20.92;;;3.00;99.90;;;;;;4974257;28;20041;-77
2021/12/23 09:46:38;;;;;;;28.23;20.67;;;3.00;99.90;;;;;;4967116;28;20018;-79
2021/12/23 09:49:05;;;;;;;28.55;21.80;;;3.00;99.90;;;;;;4959075;28;20026;-79
2021/12/23 09:51:32;;;;;;;26.83;20.17;;;3.00;99.90;;;;;;4968301;28;20384;-82
2021/12/23 09:54:02;;;;;;;30.00;20.92;;;3.00;99.90;;;;;;4954766;28;20122;-79
2021/12/23 09:56:31;;;;;;;30.63;20.92;;;3.00;99.90;;;;;;4974106;28;20031;-79
2021/12/23 09:58:58;;;;;;;29.52;21.08;;;3.00;99.90;;;;;;4973641;28;20030;-79
2021/12/23 10:01:27;;;;;;;31.05;22.02;;;3.10;99.90;;;;;;4990895;28;20042;-76
2021/12/23 10:03:53;;;;;;;28.88;20.65;;;3.20;99.90;;;;;;4986731;28;20041;-77
2021/12/23 10:06:19;;;;;;;32.58;22.35;;;3.20;99.90;;;;;;4974345;28;20030;-78
2021/12/23 10:08:45;;;;;;;30.40;21.65;;;3.30;99.90;;;;;;4973433;28;20026;-78
2021/12/23 10:11:30;;;;;;;29.42;20.70;;;3.30;99.90;;;;;;4974258;28;20125;-78
2021/12/23 10:38:49;;;;;;;37.10;22.20;;;3.60;99.90;;;;;;4965542;28;20554;-79
2021/12/23 10:41:26;;;;;;;30.30;21.15;;;3.60;99.90;;;;;;4964390;28;20096;-77
2021/12/23 17:51:27;;;;;;;39.40;27.33;;;5.60;99.90;;;;;;5615395;23;20046;-82
2021/12/23 17:53:53;;;;;;;36.65;25.65;;;5.70;99.90;;;;;;4961775;28;20026;-78
2021/12/23 17:56:20;;;;;;;34.72;24.98;;;5.70;99.90;;;;;;4965607;28;20022;-79
2021/12/23 17:58:46;;;;;;;41.60;25.80;;;5.70;99.90;;;;;;4970595;28;20018;-78
2021/12/23 18:01:12;;;;;;;35.97;25.60;;;5.70;99.90;;;;;;4970980;28;20445;-80
2021/12/23 18:03:38;;;;;;;39.25;27.92;;;5.70;99.90;;;;;;4969380;28;20026;-77
2021/12/23 18:06:05;;;;;;;38.50;27.17;;;5.70;99.90;;;;;;4971830;28;20046;-82
2021/12/23 18:08:31;;;;;;;40.05;26.15;;;5.70;99.90;;;;;;4988543;28;20064;-91
2021/12/23 18:10:57;;;;;;;33.92;23.92;;;5.70;99.90;;;;;;4971285;28;20081;-86
2021/12/23 18:13:24;;;;;;;36.20;26.33;;;5.70;99.90;;;;;;4973024;28;20453;-90
2021/12/23 18:15:51;;;;;;;40.05;28.15;;;5.80;99.90;;;;;;4988267;28;20095;-83
2021/12/23 18:18:17;;;;;;;39.45;26.40;;;5.80;99.90;;;;;;4988613;28;20162;-82
2021/12/23 18:20:43;;;;;;;43.30;28.88;;;5.80;99.90;;;;;;4971209;28;20390;-85
2021/12/23 18:23:15;;;;;;;38.70;26.50;;;5.80;99.90;;;;;;4969630;28;20027;-85
2021/12/23 18:25:43;;;;;;;43.00;29.52;;;5.80;99.90;;;;;;4987598;28;20106;-91
2021/12/23 18:28:11;;;;;;;58.92;37.22;;;5.80;99.90;;;;;;4972462;28;20109;-85
2021/12/23 18:30:37;;;;;;;52.97;33.95;;;5.80;99.90;;;;;;4970440;28;20027;-82
2021/12/23 18:33:05;;;;;;;51.22;33.92;;;5.80;99.90;;;;;;4970350;28;20026;-82
2021/12/23 18:35:35;;;;;;;46.85;29.73;;;5.70;99.90;;;;;;4986037;28;20485;-81
2021/12/23 18:38:04;;;;;;;47.80;31.13;;;5.70;99.90;;;;;;4971216;28;20021;-81
2021/12/23 18:40:35;;;;;;;51.65;33.63;;;5.80;99.90;;;;;;4968281;28;20064;-78
2021/12/23 18:43:04;;;;;;;48.42;31.05;;;5.80;99.90;;;;;;4969368;28;20026;-83
2021/12/23 18:45:31;;;;;;;52.40;33.42;;;5.70;99.90;;;;;;4969577;28;20239;-81
2021/12/23 18:47:57;;;;;;;47.95;32.53;;;5.70;99.90;;;;;;4968299;28;20019;-77
2021/12/23 18:50:26;;;;;;;47.10;32.08;;;5.80;99.90;;;;;;4988138;28;20026;-80
2021/12/23 18:52:52;;;;;;;50.28;32.85;;;5.80;99.90;;;;;;4970025;28;20042;-80
2021/12/23 18:55:18;;;;;;;49.25;32.22;;;5.80;99.90;;;;;;4987518;28;20105;-79
2021/12/23 18:57:45;;;;;;;49.70;31.13;;;5.80;99.90;;;;;;4986161;28;20370;-79
2021/12/23 19:00:18;;;;;;;45.40;29.42;;;5.80;99.90;;;;;;4988059;28;20794;-79
2021/12/23 19:05:33;;;;;;;47.47;31.00;;;5.90;99.90;;;;;;4984464;28;20050;-82
2021/12/23 19:08:00;;;;;;;48.97;33.38;;;5.90;99.90;;;;;;4981029;28;20075;-80
2021/12/23 19:10:28;;;;;;;46.58;30.88;;;5.90;99.90;;;;;;4968279;28;20065;-77
2021/12/23 19:12:54;;;;;;;49.38;30.30;;;5.90;99.90;;;;;;4970282;28;20022;-78
2021/12/23 19:15:20;;;;;;;40.92;28.10;;;5.90;99.90;;;;;;4970117;28;20049;-81
2021/12/23 19:17:46;;;;;;;41.22;29.30;;;5.90;99.90;;;;;;4968623;28;20023;-76
2021/12/23 19:20:14;;;;;;;46.42;28.88;;;5.90;99.90;;;;;;4970037;28;20394;-78
2021/12/23 19:22:41;;;;;;;43.83;28.52;;;5.90;99.90;;;;;;4969432;28;20064;-79
2021/12/23 19:25:08;;;;;;;41.55;29.23;;;5.90;99.90;;;;;;4985374;28;20080;-77
2021/12/23 19:27:35;;;;;;;45.35;32.05;;;5.90;99.90;;;;;;4970335;28;20476;-79
2021/12/23 19:30:03;;;;;;;39.55;28.08;;;6.00;99.90;;;;;;4969863;28;20030;-78
2021/12/23 19:32:30;;;;;;;38.65;28.77;;;5.90;99.90;;;;;;4968915;28;20034;-78
2021/12/23 19:34:56;;;;;;;40.28;30.45;;;5.90;99.90;;;;;;4969162;28;20034;-80
2021/12/23 19:37:21;;;;;;;35.17;25.80;;;5.90;99.90;;;;;;4969689;28;20023;-77
2021/12/23 19:39:47;;;;;;;37.25;27.15;;;5.90;99.90;;;;;;4969090;28;20031;-77
2021/12/23 19:42:12;;;;;;;32.65;25.20;;;5.90;99.90;;;;;;4969618;28;20095;-77
2021/12/23 19:44:38;;;;;;;32.85;24.20;;;5.90;99.90;;;;;;4969376;28;20030;-77
2021/12/23 19:47:04;;;;;;;31.45;24.42;;;6.00;99.90;;;;;;4975979;28;20022;-77
2021/12/23 19:49:31;;;;;;;30.60;23.63;;;6.00;99.90;;;;;;4977465;28;20471;-78
2021/12/23 19:51:57;;;;;;;31.35;23.65;;;6.00;99.90;;;;;;4955974;28;20043;-77
2021/12/23 19:54:29;;;;;;;31.75;23.95;;;6.00;99.90;;;;;;4949294;28;20031;-77
2021/12/23 19:56:59;;;;;;;32.40;22.90;;;6.00;99.90;;;;;;4950014;28;20034;-77
2021/12/23 19:59:27;;;;;;;29.95;20.98;;;6.00;99.90;;;;;;4965758;28;20057;-79
2021/12/23 20:01:54;;;;;;;30.33;22.30;;;6.00;99.90;;;;;;4969498;28;20124;-76
2021/12/23 20:04:21;;;;;;;33.17;24.20;;;6.00;99.90;;;;;;4966137;28;20035;-78
2021/12/23 20:06:47;;;;;;;35.42;24.25;;;6.00;99.90;;;;;;4958412;28;20482;-78
2021/12/23 20:09:12;;;;;;;31.70;22.08;;;6.00;99.90;;;;;;4969050;28;20026;-80
2021/12/23 20:11:38;;;;;;;53.20;33.45;;;6.00;99.90;;;;;;4969112;28;20026;-77
2021/12/23 20:14:05;;;;;;;52.97;32.95;;;6.00;99.90;;;;;;4985577;28;20027;-78
2021/12/23 20:16:31;;;;;;;42.08;27.50;;;6.10;99.90;;;;;;4970005;28;20035;-77
2021/12/23 20:18:57;;;;;;;57.78;40.13;;;6.00;99.90;;;;;;4973519;28;20026;-78
2021/12/23 20:21:23;;;;;;;54.03;41.80;;;6.00;99.90;;;;;;4989484;28;20088;-78
2021/12/23 20:23:49;;;;;;;54.28;33.40;;;6.00;99.90;;;;;;4972771;28;20026;-77
2021/12/23 20:26:15;;;;;;;47.97;32.97;;;6.00;99.90;;;;;;4972890;28;20088;-79
2021/12/23 20:28:40;;;;;;;53.20;37.58;;;6.00;99.90;;;;;;4973346;28;20036;-79